sensor_id;sensor_type;location;lat;lon;timestamp;pressure;altitude;pressure_sealevel;temperature;humidity
11888;BME280;6003;42.756;23.130;2022-11-15T00:01:08;153479.31;;;4.16;100.00
11888;BME280;6003;42.756;23.130;2022-11-15T00:03:35;153476.72;;;4.15;100.00
11888;BME280;6003;42.756;23.130;2022-11-15T00:06:04;153466.16;;;4.11;100.00
11888;BME280;6003;42.756;23.130;2022-11-15T00:08:32;153451.69;;;4.05;100.00
11888;BME280;6003;42.756;23.130;2022-11-15T00:11:00;153450.41;;;4.04;100.00
11888;BME280;6003;42.756;23.130;2022-11-15T00:13:27;153453.00;;;4.05;100.00
11888;BME280;6003;42.756;23.130;2022-11-15T00:15:57;153450.41;;;4.04;100.00
11888;BME280;6003;42.756;23.130;2022-11-15T00:18:24;153424.13;;;3.94;100.00
11888;BME280;6003;42.756;23.130;2022-11-15T00:20:51;153428.06;;;3.96;100.00
11888;BME280;6003;42.756;23.130;2022-11-15T00:23:19;153438.53;;;4.00;100.00
11888;BME280;6003;42.756;23.130;2022-11-15T00:25:46;153433.31;;;3.98;100.00
11888;BME280;6003;42.756;23.130;2022-11-15T00:28:13;153424.13;;;3.94;100.00
11888;BME280;6003;42.756;23.130;2022-11-15T00:30:40;153432.03;;;3.97;100.00
11888;BME280;6003;42.756;23.130;2022-11-15T00:33:07;153449.09;;;4.04;100.00
11888;BME280;6003;42.756;23.130;2022-11-15T00:35:35;153459.59;;;4.08;100.00
11888;BME280;6003;42.756;23.130;2022-11-15T00:38:02;153447.78;;;4.03;100.00
11888;BME280;6003;42.756;23.130;2022-11-15T00:40:30;153429.34;;;3.96;100.00
11888;BME280;6003;42.756;23.130;2022-11-15T00:42:57;153405.69;;;3.87;100.00
11888;BME280;6003;42.756;23.130;2022-11-15T00:45:25;153416.19;;;3.91;100.00
11888;BME280;6003;42.756;23.130;2022-11-15T00:47:52;153430.66;;;3.97;100.00
11888;BME280;6003;42.756;23.130;2022-11-15T00:50:19;153434.63;;;3.98;100.00
11888;BME280;6003;42.756;23.130;2022-11-15T00:52:45;153425.44;;;3.95;100.00
11888;BME280;6003;42.756;23.130;2022-11-15T00:55:14;153424.13;;;3.94;100.00
11888;BME280;6003;42.756;23.130;2022-11-15T00:57:42;153422.78;;;3.94;100.00
11888;BME280;6003;42.756;23.130;2022-11-15T01:00:10;153416.19;;;3.91;100.00
11888;BME280;6003;42.756;23.130;2022-11-15T01:02:37;153416.19;;;3.91;100.00
11888;BME280;6003;42.756;23.130;2022-11-15T01:05:05;153405.69;;;3.87;100.00
11888;BME280;6003;42.756;23.130;2022-11-15T01:07:31;153397.81;;;3.84;100.00
11888;BME280;6003;42.756;23.130;2022-11-15T01:09:58;153399.13;;;3.84;100.00
11888;BME280;6003;42.756;23.130;2022-11-15T01:12:25;153401.78;;;3.86;100.00
11888;BME280;6003;42.756;23.130;2022-11-15T01:14:53;153401.78;;;3.86;100.00
11888;BME280;6003;42.756;23.130;2022-11-15T01:17:20;153399.13;;;3.84;100.00
11888;BME280;6003;42.756;23.130;2022-11-15T01:19:47;153395.22;;;3.83;100.00
11888;BME280;6003;42.756;23.130;2022-11-15T01:22:14;153389.94;;;3.81;100.00
11888;BME280;6003;42.756;23.130;2022-11-15T01:24:41;153368.91;;;3.73;100.00
11888;BME280;6003;42.756;23.130;2022-11-15T01:27:08;153361.00;;;3.70;100.00
11888;BME280;6003;42.756;23.130;2022-11-15T01:29:35;153351.81;;;3.66;100.00
11888;BME280;6003;42.756;23.130;2022-11-15T01:32:03;153329.47;;;3.57;100.00
11888;BME280;6003;42.756;23.130;2022-11-15T01:34:30;153336.06;;;3.60;100.00
11888;BME280;6003;42.756;23.130;2022-11-15T01:36:57;153329.47;;;3.57;100.00
11888;BME280;6003;42.756;23.130;2022-11-15T01:39:24;153311.06;;;3.50;100.00
11888;BME280;6003;42.756;23.130;2022-11-15T01:41:51;153295.31;;;3.44;100.00
11888;BME280;6003;42.756;23.130;2022-11-15T01:44:40;153282.16;;;3.39;100.00
11888;BME280;6003;42.756;23.130;2022-11-15T01:47:12;153284.81;;;3.40;100.00
11888;BME280;6003;42.756;23.130;2022-11-15T01:49:41;153274.28;;;3.36;100.00
11888;BME280;6003;42.756;23.130;2022-11-15T01:52:15;153301.88;;;3.47;100.00
11888;BME280;6003;42.756;23.130;2022-11-15T01:54:44;153292.69;;;3.43;100.00
11888;BME280;6003;42.756;23.130;2022-11-15T01:57:11;153275.56;;;3.36;100.00
11888;BME280;6003;42.756;23.130;2022-11-15T01:59:42;153259.81;;;3.30;100.00
11888;BME280;6003;42.756;23.130;2022-11-15T02:02:11;153258.50;;;3.30;100.00
11888;BME280;6003;42.756;23.130;2022-11-15T02:04:41;153257.19;;;3.29;100.00
11888;BME280;6003;42.756;23.130;2022-11-15T02:07:09;153271.66;;;3.35;100.00
11888;BME280;6003;42.756;23.130;2022-11-15T02:09:38;153274.28;;;3.36;100.00
11888;BME280;6003;42.756;23.130;2022-11-15T02:12:06;153278.22;;;3.37;100.00
11888;BME280;6003;42.756;23.130;2022-11-15T02:14:34;153274.28;;;3.36;100.00
11888;BME280;6003;42.756;23.130;2022-11-15T02:17:12;153271.66;;;3.35;100.00
11888;BME280;6003;42.756;23.130;2022-11-15T02:20:11;153258.50;;;3.30;100.00
11888;BME280;6003;42.756;23.130;2022-11-15T02:22:51;153274.28;;;3.36;100.00
11888;BME280;6003;42.756;23.130;2022-11-15T02:25:36;153276.94;;;3.37;100.00
11888;BME280;6003;42.756;23.130;2022-11-15T02:28:15;153274.28;;;3.36;100.00
11888;BME280;6003;42.756;23.130;2022-11-15T02:30:47;153279.53;;;3.38;100.00
11888;BME280;6003;42.756;23.130;2022-11-15T02:33:27;153280.84;;;3.38;100.00
11888;BME280;6003;42.756;23.130;2022-11-15T02:35:59;153287.41;;;3.41;100.00
11888;BME280;6003;42.756;23.130;2022-11-15T02:38:33;153287.41;;;3.41;100.00
11888;BME280;6003;42.756;23.130;2022-11-15T02:41:03;153263.78;;;3.32;100.00
11888;BME280;6003;42.756;23.130;2022-11-15T02:43:38;153229.59;;;3.19;100.00
11888;BME280;6003;42.756;23.130;2022-11-15T02:46:29;153286.13;;;3.41;100.00
11888;BME280;6003;42.756;23.130;2022-11-15T02:49:16;153290.03;;;3.42;100.00
11888;BME280;6003;42.756;23.130;2022-11-15T02:51:45;153288.72;;;3.42;100.00
11888;BME280;6003;42.756;23.130;2022-11-15T02:54:22;153279.53;;;3.38;100.00
11888;BME280;6003;42.756;23.130;2022-11-15T02:56:53;153292.69;;;3.43;100.00
11888;BME280;6003;42.756;23.130;2022-11-15T02:59:38;153290.03;;;3.42;100.00
11888;BME280;6003;42.756;23.130;2022-11-15T03:02:23;153255.91;;;3.29;100.00
11888;BME280;6003;42.756;23.130;2022-11-15T03:04:56;153250.63;;;3.27;100.00
11888;BME280;6003;42.756;23.130;2022-11-15T03:07:29;153253.25;;;3.28;100.00
11888;BME280;6003;42.756;23.130;2022-11-15T03:10:00;153255.91;;;3.29;100.00
11888;BME280;6003;42.756;23.130;2022-11-15T03:12:35;153248.03;;;3.26;100.00
11888;BME280;6003;42.756;23.130;2022-11-15T03:15:07;153229.59;;;3.19;100.00
11888;BME280;6003;42.756;23.130;2022-11-15T03:17:40;153213.84;;;3.12;100.00
11888;BME280;6003;42.756;23.130;2022-11-15T03:20:11;153196.78;;;3.06;100.00
11888;BME280;6003;42.756;23.130;2022-11-15T03:22:43;153184.94;;;3.01;100.00
11888;BME280;6003;42.756;23.130;2022-11-15T03:25:16;153181.03;;;3.00;100.00
11888;BME280;6003;42.756;23.130;2022-11-15T03:27:48;153179.66;;;2.99;100.00
11888;BME280;6003;42.756;23.130;2022-11-15T03:30:17;153179.66;;;2.99;100.00
11888;BME280;6003;42.756;23.130;2022-11-15T03:32:47;153178.34;;;2.99;100.00
11888;BME280;6003;42.756;23.130;2022-11-15T03:35:17;153170.47;;;2.96;100.00
11888;BME280;6003;42.756;23.130;2022-11-15T03:37:50;153169.19;;;2.95;100.00
11888;BME280;6003;42.756;23.130;2022-11-15T03:40:20;153169.19;;;2.95;100.00
11888;BME280;6003;42.756;23.130;2022-11-15T03:42:54;153163.91;;;2.93;100.00
11888;BME280;6003;42.756;23.130;2022-11-15T03:45:28;153140.28;;;2.84;100.00
11888;BME280;6003;42.756;23.130;2022-11-15T03:48:01;153135.00;;;2.82;100.00
11888;BME280;6003;42.756;23.130;2022-11-15T03:50:31;153124.53;;;2.78;100.00
11888;BME280;6003;42.756;23.130;2022-11-15T03:52:58;153120.56;;;2.76;100.00
11888;BME280;6003;42.756;23.130;2022-11-15T03:55:25;153124.53;;;2.78;100.00
11888;BME280;6003;42.756;23.130;2022-11-15T03:57:54;153135.00;;;2.82;100.00
11888;BME280;6003;42.756;23.130;2022-11-15T04:00:22;153150.81;;;2.88;100.00
11888;BME280;6003;42.756;23.130;2022-11-15T04:02:49;153153.44;;;2.89;100.00
11888;BME280;6003;42.756;23.130;2022-11-15T04:05:18;153171.78;;;2.96;100.00
11888;BME280;6003;42.756;23.130;2022-11-15T04:07:44;153190.19;;;3.03;100.00
11888;BME280;6003;42.756;23.130;2022-11-15T04:10:12;153203.34;;;3.08;100.00
11888;BME280;6003;42.756;23.130;2022-11-15T04:12:40;153192.81;;;3.04;100.00
11888;BME280;6003;42.756;23.130;2022-11-15T04:15:10;153220.41;;;3.15;100.00
11888;BME280;6003;42.756;23.130;2022-11-15T04:17:39;153208.56;;;3.10;100.00
11888;BME280;6003;42.756;23.130;2022-11-15T04:20:09;153216.44;;;3.13;100.00
11888;BME280;6003;42.756;23.130;2022-11-15T04:22:57;153213.84;;;3.12;100.00
11888;BME280;6003;42.756;23.130;2022-11-15T04:25:42;153226.97;;;3.17;100.00
11888;BME280;6003;42.756;23.130;2022-11-15T04:28:10;153228.28;;;3.18;100.00
11888;BME280;6003;42.756;23.130;2022-11-15T04:30:37;153225.69;;;3.17;100.00
11888;BME280;6003;42.756;23.130;2022-11-15T04:33:04;153236.16;;;3.21;100.00
11888;BME280;6003;42.756;23.130;2022-11-15T04:35:31;153242.75;;;3.24;100.00
11888;BME280;6003;42.756;23.130;2022-11-15T04:37:59;153276.94;;;3.37;100.00
11888;BME280;6003;42.756;23.130;2022-11-15T04:40:25;153305.84;;;3.48;100.00
11888;BME280;6003;42.756;23.130;2022-11-15T04:42:52;153311.06;;;3.50;100.00
11888;BME280;6003;42.756;23.130;2022-11-15T04:45:19;153339.97;;;3.61;100.00
11888;BME280;6003;42.756;23.130;2022-11-15T04:47:46;153361.00;;;3.70;100.00
11888;BME280;6003;42.756;23.130;2022-11-15T04:50:15;153363.63;;;3.71;100.00
11888;BME280;6003;42.756;23.130;2022-11-15T04:52:42;153363.63;;;3.71;100.00
11888;BME280;6003;42.756;23.130;2022-11-15T04:55:11;153389.94;;;3.81;100.00
11888;BME280;6003;42.756;23.130;2022-11-15T04:57:38;153393.84;;;3.82;100.00
11888;BME280;6003;42.756;23.130;2022-11-15T05:00:06;153424.13;;;3.94;100.00
11888;BME280;6003;42.756;23.130;2022-11-15T05:02:34;153434.63;;;3.98;100.00
11888;BME280;6003;42.756;23.130;2022-11-15T05:05:17;153424.13;;;3.94;100.00
11888;BME280;6003;42.756;23.130;2022-11-15T05:07:44;153421.47;;;3.93;100.00
11888;BME280;6003;42.756;23.130;2022-11-15T05:10:22;153424.13;;;3.94;100.00
11888;BME280;6003;42.756;23.130;2022-11-15T05:12:49;153413.59;;;3.90;100.00
11888;BME280;6003;42.756;23.130;2022-11-15T05:15:15;153405.69;;;3.87;100.00
11888;BME280;6003;42.756;23.130;2022-11-15T05:17:42;153366.28;;;3.72;100.00
11888;BME280;6003;42.756;23.130;2022-11-15T05:20:10;153332.09;;;3.58;100.00
11888;BME280;6003;42.756;23.130;2022-11-15T05:22:37;153299.25;;;3.46;100.00
11888;BME280;6003;42.756;23.130;2022-11-15T05:25:07;153275.56;;;3.36;100.00
11888;BME280;6003;42.756;23.130;2022-11-15T05:27:36;153240.13;;;3.23;100.00
11888;BME280;6003;42.756;23.130;2022-11-15T05:30:03;153248.03;;;3.26;100.00
11888;BME280;6003;42.756;23.130;2022-11-15T05:32:30;153250.63;;;3.27;100.00
11888;BME280;6003;42.756;23.130;2022-11-15T05:34:57;153269.03;;;3.34;100.00
11888;BME280;6003;42.756;23.130;2022-11-15T05:37:23;153287.41;;;3.41;100.00
11888;BME280;6003;42.756;23.130;2022-11-15T05:39:56;153313.72;;;3.51;100.00
11888;BME280;6003;42.756;23.130;2022-11-15T05:42:24;153326.81;;;3.56;100.00
11888;BME280;6003;42.756;23.130;2022-11-15T05:44:54;153347.88;;;3.65;100.00
11888;BME280;6003;42.756;23.130;2022-11-15T05:47:23;153332.09;;;3.58;100.00
11888;BME280;6003;42.756;23.130;2022-11-15T05:49:53;153364.97;;;3.71;100.00
11888;BME280;6003;42.756;23.130;2022-11-15T05:52:22;153376.78;;;3.76;100.00
11888;BME280;6003;42.756;23.130;2022-11-15T05:54:50;153384.66;;;3.79;100.00
11888;BME280;6003;42.756;23.130;2022-11-15T05:57:18;153372.88;;;3.74;100.00
11888;BME280;6003;42.756;23.130;2022-11-15T05:59:45;153388.63;;;3.80;100.00
11888;BME280;6003;42.756;23.130;2022-11-15T06:02:13;153391.25;;;3.81;100.00
11888;BME280;6003;42.756;23.130;2022-11-15T06:04:40;153395.22;;;3.83;100.00
11888;BME280;6003;42.756;23.130;2022-11-15T06:07:07;153397.81;;;3.84;100.00
11888;BME280;6003;42.756;23.130;2022-11-15T06:09:33;153403.09;;;3.86;100.00
11888;BME280;6003;42.756;23.130;2022-11-15T06:12:00;153416.19;;;3.91;100.00
11888;BME280;6003;42.756;23.130;2022-11-15T06:14:27;153426.75;;;3.95;100.00
11888;BME280;6003;42.756;23.130;2022-11-15T06:16:54;153416.19;;;3.91;100.00
11888;BME280;6003;42.756;23.130;2022-11-15T06:19:22;153401.78;;;3.86;100.00
11888;BME280;6003;42.756;23.130;2022-11-15T06:21:49;153384.66;;;3.79;100.00
11888;BME280;6003;42.756;23.130;2022-11-15T06:24:16;153361.00;;;3.70;100.00
11888;BME280;6003;42.756;23.130;2022-11-15T06:26:42;153353.13;;;3.67;100.00
11888;BME280;6003;42.756;23.130;2022-11-15T06:40:54;153589.81;;;4.59;100.00
11888;BME280;6003;42.756;23.130;2022-11-15T06:43:21;153576.63;;;4.53;100.00
11888;BME280;6003;42.756;23.130;2022-11-15T06:45:47;153534.53;;;4.37;100.00
11888;BME280;6003;42.756;23.130;2022-11-15T06:48:14;153509.56;;;4.27;100.00
11888;BME280;6003;42.756;23.130;2022-11-15T06:50:41;153508.25;;;4.27;100.00
11888;BME280;6003;42.756;23.130;2022-11-15T06:53:08;153517.47;;;4.30;100.00
11888;BME280;6003;42.756;23.130;2022-11-15T06:55:35;153525.34;;;4.34;100.00
11888;BME280;6003;42.756;23.130;2022-11-15T06:58:03;153499.06;;;4.23;100.00
11888;BME280;6003;42.756;23.130;2022-11-15T07:00:30;153488.53;;;4.19;100.00
11888;BME280;6003;42.756;23.130;2022-11-15T07:02:59;153426.75;;;3.95;100.00
11888;BME280;6003;42.756;23.130;2022-11-15T07:05:26;153408.31;;;3.88;100.00
11888;BME280;6003;42.756;23.130;2022-11-15T07:07:54;153429.34;;;3.96;100.00
11888;BME280;6003;42.756;23.130;2022-11-15T07:10:21;153437.25;;;3.99;100.00
11888;BME280;6003;42.756;23.130;2022-11-15T07:12:49;153468.84;;;4.12;100.00
11888;BME280;6003;42.756;23.130;2022-11-15T07:15:18;153453.00;;;4.05;100.00
11888;BME280;6003;42.756;23.130;2022-11-15T07:17:45;153481.94;;;4.17;100.00
11888;BME280;6003;42.756;23.130;2022-11-15T07:20:13;153501.69;;;4.24;100.00
11888;BME280;6003;42.756;23.130;2022-11-15T07:22:39;153497.72;;;4.23;100.00
11888;BME280;6003;42.756;23.130;2022-11-15T07:25:07;153483.28;;;4.17;100.00
11888;BME280;6003;42.756;23.130;2022-11-15T07:27:34;153500.38;;;4.24;100.00
11888;BME280;6003;42.756;23.130;2022-11-15T07:30:01;153516.16;;;4.30;100.00
11888;BME280;6003;42.756;23.130;2022-11-15T07:32:30;153550.34;;;4.43;100.00
11888;BME280;6003;42.756;23.130;2022-11-15T07:34:57;153528.00;;;4.35;100.00
11888;BME280;6003;42.756;23.130;2022-11-15T07:37:23;153510.88;;;4.28;100.00
11888;BME280;6003;42.756;23.130;2022-11-15T07:39:50;153510.88;;;4.28;100.00
11888;BME280;6003;42.756;23.130;2022-11-15T07:42:17;153533.22;;;4.37;100.00
11888;BME280;6003;42.756;23.130;2022-11-15T07:45:01;153534.53;;;4.37;100.00
11888;BME280;6003;42.756;23.130;2022-11-15T07:47:29;153539.81;;;4.39;100.00
11888;BME280;6003;42.756;23.130;2022-11-15T07:49:56;153543.78;;;4.41;100.00
11888;BME280;6003;42.756;23.130;2022-11-15T07:52:23;153539.81;;;4.39;100.00
11888;BME280;6003;42.756;23.130;2022-11-15T07:54:50;153563.47;;;4.48;100.00
11888;BME280;6003;42.756;23.130;2022-11-15T07:57:17;153568.75;;;4.50;100.00
11888;BME280;6003;42.756;23.130;2022-11-15T07:59:44;153587.19;;;4.58;100.00
11888;BME280;6003;42.756;23.130;2022-11-15T08:02:10;153583.22;;;4.56;100.00
11888;BME280;6003;42.756;23.130;2022-11-15T08:04:38;153605.59;;;4.65;100.00
11888;BME280;6003;42.756;23.130;2022-11-15T08:07:05;153616.09;;;4.69;100.00
11888;BME280;6003;42.756;23.130;2022-11-15T08:09:32;153577.94;;;4.54;100.00
11888;BME280;6003;42.756;23.130;2022-11-15T08:11:59;153589.81;;;4.59;100.00
11888;BME280;6003;42.756;23.130;2022-11-15T08:14:25;153589.81;;;4.59;100.00
11888;BME280;6003;42.756;23.130;2022-11-15T08:16:54;153606.88;;;4.65;100.00
11888;BME280;6003;42.756;23.130;2022-11-15T08:19:20;153621.34;;;4.71;100.00
11888;BME280;6003;42.756;23.130;2022-11-15T08:21:49;153641.09;;;4.79;100.00
11888;BME280;6003;42.756;23.130;2022-11-15T08:24:16;153676.63;;;4.92;100.00
11888;BME280;6003;42.756;23.130;2022-11-15T08:26:42;153681.88;;;4.94;100.00
11888;BME280;6003;42.756;23.130;2022-11-15T08:29:09;153673.97;;;4.91;100.00
11888;BME280;6003;42.756;23.130;2022-11-15T08:31:36;153602.97;;;4.64;100.00
11888;BME280;6003;42.756;23.130;2022-11-15T08:34:06;153512.19;;;4.28;100.00
11888;BME280;6003;42.756;23.130;2022-11-15T08:36:33;153501.69;;;4.24;100.00
11888;BME280;6003;42.756;23.130;2022-11-15T08:39:02;153485.91;;;4.18;100.00
11888;BME280;6003;42.756;23.130;2022-11-15T08:41:31;153505.66;;;4.26;100.00
11888;BME280;6003;42.756;23.130;2022-11-15T08:43:58;153479.31;;;4.16;100.00
11888;BME280;6003;42.756;23.130;2022-11-15T08:46:25;153513.53;;;4.29;100.00
11888;BME280;6003;42.756;23.130;2022-11-15T08:48:52;153556.88;;;4.46;100.00
11888;BME280;6003;42.756;23.130;2022-11-15T08:51:19;153652.91;;;4.83;100.00
11888;BME280;6003;42.756;23.130;2022-11-15T08:53:45;153748.97;;;5.20;100.00
11888;BME280;6003;42.756;23.130;2022-11-15T08:56:14;153752.94;;;5.22;100.00
11888;BME280;6003;42.756;23.130;2022-11-15T08:58:41;153750.34;;;5.21;100.00
11888;BME280;6003;42.756;23.130;2022-11-15T09:01:15;153729.28;;;5.13;100.00
11888;BME280;6003;42.756;23.130;2022-11-15T09:03:43;153731.88;;;5.14;100.00
11888;BME280;6003;42.756;23.130;2022-11-15T09:06:09;153750.34;;;5.21;100.00
11888;BME280;6003;42.756;23.130;2022-11-15T09:08:36;153784.53;;;5.34;100.00
11888;BME280;6003;42.756;23.130;2022-11-15T09:11:04;153781.91;;;5.33;100.00
11888;BME280;6003;42.756;23.130;2022-11-15T09:13:33;153763.47;;;5.26;100.00
11888;BME280;6003;42.756;23.130;2022-11-15T09:16:00;153780.59;;;5.33;100.00
11888;BME280;6003;42.756;23.130;2022-11-15T09:18:28;153795.06;;;5.38;100.00
11888;BME280;6003;42.756;23.130;2022-11-15T09:20:55;153805.59;;;5.42;100.00
11888;BME280;6003;42.756;23.130;2022-11-15T09:23:23;153818.75;;;5.48;100.00
11888;BME280;6003;42.756;23.130;2022-11-15T09:25:50;153830.59;;;5.52;100.00
11888;BME280;6003;42.756;23.130;2022-11-15T09:28:17;153870.09;;;5.68;100.00
11888;BME280;6003;42.756;23.130;2022-11-15T09:30:45;153905.66;;;5.81;100.00
11888;BME280;6003;42.756;23.130;2022-11-15T09:33:12;153918.78;;;5.86;100.00
11888;BME280;6003;42.756;23.130;2022-11-15T09:35:39;153946.50;;;5.97;100.00
11888;BME280;6003;42.756;23.130;2022-11-15T09:38:07;153984.69;;;6.12;100.00
11888;BME280;6003;42.756;23.130;2022-11-15T09:40:36;153928.06;;;5.90;100.00
11888;BME280;6003;42.756;23.130;2022-11-15T09:43:21;153895.09;;;5.77;100.00
11888;BME280;6003;42.756;23.130;2022-11-15T09:45:58;153766.13;;;5.27;100.00
11888;BME280;6003;42.756;23.130;2022-11-15T12:40:04;154228.44;;;7.07;100.00
11888;BME280;6003;42.756;23.130;2022-11-15T12:42:40;154207.34;;;6.98;100.00
11888;BME280;6003;42.756;23.130;2022-11-15T12:45:25;154188.94;;;6.91;100.00
11888;BME280;6003;42.756;23.130;2022-11-15T12:47:53;154182.34;;;6.89;100.00
11888;BME280;6003;42.756;23.130;2022-11-15T12:50:53;154192.84;;;6.93;100.00
11888;BME280;6003;42.756;23.130;2022-11-15T12:53:26;154208.66;;;6.99;100.00
11888;BME280;6003;42.756;23.130;2022-11-15T12:58:49;154210.03;;;6.99;100.00
11888;BME280;6003;42.756;23.130;2022-11-15T13:01:55;154228.44;;;7.07;100.00
11888;BME280;6003;42.756;23.130;2022-11-15T13:04:25;154211.34;;;7.00;100.00
11888;BME280;6003;42.756;23.130;2022-11-15T13:06:53;154219.25;;;7.03;100.00
11888;BME280;6003;42.756;23.130;2022-11-15T13:12:53;154210.03;;;6.99;100.00
11888;BME280;6003;42.756;23.130;2022-11-15T13:15:51;154213.94;;;7.01;100.00
11888;BME280;6003;42.756;23.130;2022-11-15T13:18:28;154216.63;;;7.02;100.00
11888;BME280;6003;42.756;23.130;2022-11-15T13:20:55;154216.63;;;7.02;100.00
11888;BME280;6003;42.756;23.130;2022-11-15T13:23:22;154204.72;;;6.97;100.00
11888;BME280;6003;42.756;23.130;2022-11-15T13:26:06;154200.75;;;6.96;100.00
11888;BME280;6003;42.756;23.130;2022-11-15T13:28:38;154192.84;;;6.93;100.00
11888;BME280;6003;42.756;23.130;2022-11-15T13:31:21;154198.13;;;6.95;100.00
11888;BME280;6003;42.756;23.130;2022-11-15T13:33:49;154195.53;;;6.94;100.00
11888;BME280;6003;42.756;23.130;2022-11-15T13:36:20;154192.84;;;6.93;100.00
11888;BME280;6003;42.756;23.130;2022-11-15T13:38:54;154200.75;;;6.96;100.00
11888;BME280;6003;42.756;23.130;2022-11-15T13:41:26;154196.84;;;6.94;100.00
11888;BME280;6003;42.756;23.130;2022-11-15T13:43:55;154200.75;;;6.96;100.00
11888;BME280;6003;42.756;23.130;2022-11-15T13:46:25;154206.03;;;6.98;100.00
11888;BME280;6003;42.756;23.130;2022-11-15T13:48:55;154206.03;;;6.98;100.00
11888;BME280;6003;42.756;23.130;2022-11-15T13:51:29;154207.34;;;6.98;100.00
11888;BME280;6003;42.756;23.130;2022-11-15T13:54:00;154210.03;;;6.99;100.00
11888;BME280;6003;42.756;23.130;2022-11-15T13:56:28;154221.84;;;7.04;100.00
11888;BME280;6003;42.756;23.130;2022-11-15T13:58:57;154208.66;;;6.99;100.00
11888;BME280;6003;42.756;23.130;2022-11-15T14:01:28;154210.03;;;6.99;100.00
11888;BME280;6003;42.756;23.130;2022-11-15T14:03:59;154215.25;;;7.01;100.00
11888;BME280;6003;42.756;23.130;2022-11-15T14:06:29;154229.75;;;7.07;100.00
11888;BME280;6003;42.756;23.130;2022-11-15T14:09:16;154236.34;;;7.10;100.00
11888;BME280;6003;42.756;23.130;2022-11-15T14:11:52;154221.84;;;7.04;100.00
11888;BME280;6003;42.756;23.130;2022-11-15T14:14:21;154217.94;;;7.03;100.00
11888;BME280;6003;42.756;23.130;2022-11-15T14:16:51;154200.75;;;6.96;100.00
11888;BME280;6003;42.756;23.130;2022-11-15T14:19:37;154206.03;;;6.98;100.00
11888;BME280;6003;42.756;23.130;2022-11-15T14:22:18;154198.13;;;6.95;100.00
11888;BME280;6003;42.756;23.130;2022-11-15T14:25:03;154187.63;;;6.91;100.00
11888;BME280;6003;42.756;23.130;2022-11-15T14:27:31;154190.22;;;6.92;100.00
11888;BME280;6003;42.756;23.130;2022-11-15T14:29:59;154187.63;;;6.91;100.00
11888;BME280;6003;42.756;23.130;2022-11-15T14:32:29;154190.22;;;6.92;100.00
11888;BME280;6003;42.756;23.130;2022-11-15T14:34:58;154196.84;;;6.94;99.84
11888;BME280;6003;42.756;23.130;2022-11-15T14:37:27;154181.03;;;6.88;100.00
11888;BME280;6003;42.756;23.130;2022-11-15T14:39:54;154183.63;;;6.89;99.82
11888;BME280;6003;42.756;23.130;2022-11-15T14:42:22;154190.22;;;6.92;100.00
11888;BME280;6003;42.756;23.130;2022-11-15T14:44:49;154200.75;;;6.96;100.00
11888;BME280;6003;42.756;23.130;2022-11-15T14:47:17;154211.34;;;7.00;100.00
11888;BME280;6003;42.756;23.130;2022-11-15T14:49:45;154225.81;;;7.06;99.44
11888;BME280;6003;42.756;23.130;2022-11-15T14:52:23;154237.66;;;7.10;99.82
11888;BME280;6003;42.756;23.130;2022-11-15T14:54:50;154242.94;;;7.12;99.50
11888;BME280;6003;42.756;23.130;2022-11-15T14:57:17;154250.84;;;7.15;99.36
11888;BME280;6003;42.756;23.130;2022-11-15T14:59:44;154250.84;;;7.15;99.07
11888;BME280;6003;42.756;23.130;2022-11-15T15:02:15;154250.84;;;7.15;99.69
11888;BME280;6003;42.756;23.130;2022-11-15T15:04:44;154254.84;;;7.17;99.61
11888;BME280;6003;42.756;23.130;2022-11-15T15:07:11;154250.84;;;7.15;99.53
11888;BME280;6003;42.756;23.130;2022-11-15T15:09:38;154252.16;;;7.16;98.98
11888;BME280;6003;42.756;23.130;2022-11-15T15:12:12;154250.84;;;7.15;98.75
11888;BME280;6003;42.756;23.130;2022-11-15T15:14:49;154250.84;;;7.15;98.80
11888;BME280;6003;42.756;23.130;2022-11-15T15:17:16;154240.34;;;7.11;98.04
11888;BME280;6003;42.756;23.130;2022-11-15T15:19:45;154215.25;;;7.01;98.64
11888;BME280;6003;42.756;23.130;2022-11-15T15:22:15;154204.72;;;6.97;99.07
11888;BME280;6003;42.756;23.130;2022-11-15T15:24:42;154182.34;;;6.89;99.60
11888;BME280;6003;42.756;23.130;2022-11-15T15:27:09;154174.44;;;6.86;99.15
11888;BME280;6003;42.756;23.130;2022-11-15T15:29:36;154155.94;;;6.78;99.11
11888;BME280;6003;42.756;23.130;2022-11-15T15:32:03;154121.72;;;6.65;98.49
11888;BME280;6003;42.756;23.130;2022-11-15T15:34:30;154092.72;;;6.54;99.53
11888;BME280;6003;42.756;23.130;2022-11-15T15:37:12;154087.44;;;6.52;99.59
11888;BME280;6003;42.756;23.130;2022-11-15T15:39:45;154075.63;;;6.47;99.20
11888;BME280;6003;42.756;23.130;2022-11-15T15:42:12;154058.47;;;6.41;99.98
11888;BME280;6003;42.756;23.130;2022-11-15T15:44:39;154029.47;;;6.29;100.00
11888;BME280;6003;42.756;23.130;2022-11-15T15:47:10;154028.16;;;6.29;99.63
11888;BME280;6003;42.756;23.130;2022-11-15T15:49:37;154012.38;;;6.23;99.51
11888;BME280;6003;42.756;23.130;2022-11-15T15:52:04;153979.47;;;6.10;99.80
11888;BME280;6003;42.756;23.130;2022-11-15T15:54:32;153980.78;;;6.10;100.00
11888;BME280;6003;42.756;23.130;2022-11-15T15:56:59;153970.22;;;6.06;99.58
11888;BME280;6003;42.756;23.130;2022-11-15T15:59:26;153955.72;;;6.01;99.55
11888;BME280;6003;42.756;23.130;2022-11-15T16:01:53;153937.31;;;5.94;99.60
11888;BME280;6003;42.756;23.130;2022-11-15T16:04:19;153920.16;;;5.87;99.59
11888;BME280;6003;42.756;23.130;2022-11-15T16:06:46;153910.91;;;5.83;99.72
11888;BME280;6003;42.756;23.130;2022-11-15T16:09:16;153876.69;;;5.70;99.52
11888;BME280;6003;42.756;23.130;2022-11-15T16:11:45;153858.25;;;5.63;99.45
11888;BME280;6003;42.756;23.130;2022-11-15T16:14:12;153845.06;;;5.58;100.00